Terminal Aerodrome Forecast
Issued by NWS Portland, OR

Home | Current Version | Previous Version | Text Only | Print | Product List | Glossary On
Versions: 1 2 3 4 5 6 7 8 9 10 11 12 13 14
000
FTUS46 KPQR 111128
TAFEUG
TAF
KEUG 111128Z 1112/1212 VRB02KT 1/4SM FZFG VV002
     FM111900 00000KT 2SM BR BKN002
     FM112000 02005KT P6SM SCT250
     FM120300 VRB03KT 3/4SM BR BKN002
     FM120600 VRB03KT 1/4SM FG VV001=

USA.gov is the U.S. government's official web portal to all federal, state and local government web resources and services.